sensor_id;sensor_type;location;lat;lon;timestamp;temperature;humidity
52799;DHT22;38667;42.872;74.622;2023-08-12T00:01:58;23.10;42.00
52799;DHT22;38667;42.872;74.622;2023-08-12T00:04:25;23.10;42.00
52799;DHT22;38667;42.872;74.622;2023-08-12T00:06:51;23.10;42.00
52799;DHT22;38667;42.872;74.622;2023-08-12T00:09:17;23.10;42.20
52799;DHT22;38667;42.872;74.622;2023-08-12T00:11:45;23.10;41.80
52799;DHT22;38667;42.872;74.622;2023-08-12T00:14:11;23.10;41.90
52799;DHT22;38667;42.872;74.622;2023-08-12T00:16:38;23.10;42.10
52799;DHT22;38667;42.872;74.622;2023-08-12T00:19:04;23.00;42.20
52799;DHT22;38667;42.872;74.622;2023-08-12T00:21:30;23.00;42.30
52799;DHT22;38667;42.872;74.622;2023-08-12T00:23:56;23.10;42.40
52799;DHT22;38667;42.872;74.622;2023-08-12T00:26:23;23.10;42.30
52799;DHT22;38667;42.872;74.622;2023-08-12T00:28:51;23.10;42.50
52799;DHT22;38667;42.872;74.622;2023-08-12T00:31:17;23.00;42.30
52799;DHT22;38667;42.872;74.622;2023-08-12T00:33:43;23.10;42.70
52799;DHT22;38667;42.872;74.622;2023-08-12T00:36:09;23.10;43.50
52799;DHT22;38667;42.872;74.622;2023-08-12T00:38:36;23.10;42.70
52799;DHT22;38667;42.872;74.622;2023-08-12T00:41:03;23.00;42.60
52799;DHT22;38667;42.872;74.622;2023-08-12T00:43:29;23.10;42.30
52799;DHT22;38667;42.872;74.622;2023-08-12T00:45:57;23.10;42.30
52799;DHT22;38667;42.872;74.622;2023-08-12T00:48:23;23.10;42.30
52799;DHT22;38667;42.872;74.622;2023-08-12T00:50:50;23.10;42.60
52799;DHT22;38667;42.872;74.622;2023-08-12T00:53:18;23.00;42.70
52799;DHT22;38667;42.872;74.622;2023-08-12T00:55:44;23.10;42.70
52799;DHT22;38667;42.872;74.622;2023-08-12T00:58:11;23.00;43.00
52799;DHT22;38667;42.872;74.622;2023-08-12T01:00:38;23.00;42.90
52799;DHT22;38667;42.872;74.622;2023-08-12T01:03:06;23.10;42.90
52799;DHT22;38667;42.872;74.622;2023-08-12T01:05:32;23.10;43.00
52799;DHT22;38667;42.872;74.622;2023-08-12T01:07:59;23.10;43.00
52799;DHT22;38667;42.872;74.622;2023-08-12T01:10:29;23.10;42.90
52799;DHT22;38667;42.872;74.622;2023-08-12T01:13:07;23.20;42.60
52799;DHT22;38667;42.872;74.622;2023-08-12T01:15:36;23.20;42.70
52799;DHT22;38667;42.872;74.622;2023-08-12T01:18:06;23.20;42.60
52799;DHT22;38667;42.872;74.622;2023-08-12T01:20:33;23.30;42.60
52799;DHT22;38667;42.872;74.622;2023-08-12T01:23:10;23.30;42.60
52799;DHT22;38667;42.872;74.622;2023-08-12T01:25:36;23.40;42.40
52799;DHT22;38667;42.872;74.622;2023-08-12T01:28:03;23.40;42.10
52799;DHT22;38667;42.872;74.622;2023-08-12T01:30:29;23.40;42.10
52799;DHT22;38667;42.872;74.622;2023-08-12T01:33:00;23.40;42.30
52799;DHT22;38667;42.872;74.622;2023-08-12T01:35:32;23.50;42.60
52799;DHT22;38667;42.872;74.622;2023-08-12T01:38:02;23.60;42.60
52799;DHT22;38667;42.872;74.622;2023-08-12T01:40:32;23.60;42.90
52799;DHT22;38667;42.872;74.622;2023-08-12T01:42:59;23.60;42.60
52799;DHT22;38667;42.872;74.622;2023-08-12T01:45:26;23.60;42.70
52799;DHT22;38667;42.872;74.622;2023-08-12T01:47:52;23.70;42.50
52799;DHT22;38667;42.872;74.622;2023-08-12T01:50:18;23.70;42.30
52799;DHT22;38667;42.872;74.622;2023-08-12T01:52:45;23.80;41.50
52799;DHT22;38667;42.872;74.622;2023-08-12T01:55:12;23.90;40.90
52799;DHT22;38667;42.872;74.622;2023-08-12T01:57:40;23.90;41.60
52799;DHT22;38667;42.872;74.622;2023-08-12T02:00:07;23.90;41.50
52799;DHT22;38667;42.872;74.622;2023-08-12T02:02:33;24.00;40.90
52799;DHT22;38667;42.872;74.622;2023-08-12T02:04:59;24.00;41.10
52799;DHT22;38667;42.872;74.622;2023-08-12T02:07:26;24.00;40.90
52799;DHT22;38667;42.872;74.622;2023-08-12T02:09:52;24.10;40.70
52799;DHT22;38667;42.872;74.622;2023-08-12T02:12:18;24.10;40.80
52799;DHT22;38667;42.872;74.622;2023-08-12T02:14:46;24.10;40.70
52799;DHT22;38667;42.872;74.622;2023-08-12T02:17:12;24.20;40.10
52799;DHT22;38667;42.872;74.622;2023-08-12T02:19:39;24.20;40.50
52799;DHT22;38667;42.872;74.622;2023-08-12T02:22:05;24.20;40.60
52799;DHT22;38667;42.872;74.622;2023-08-12T02:24:31;24.20;40.70
52799;DHT22;38667;42.872;74.622;2023-08-12T02:26:58;24.30;41.10
52799;DHT22;38667;42.872;74.622;2023-08-12T02:29:24;24.40;40.60
52799;DHT22;38667;42.872;74.622;2023-08-12T02:31:52;24.50;40.70
52799;DHT22;38667;42.872;74.622;2023-08-12T02:34:18;24.50;40.70
52799;DHT22;38667;42.872;74.622;2023-08-12T02:36:44;24.50;40.40
52799;DHT22;38667;42.872;74.622;2023-08-12T02:39:11;24.50;40.50
52799;DHT22;38667;42.872;74.622;2023-08-12T02:41:37;24.50;40.60
52799;DHT22;38667;42.872;74.622;2023-08-12T02:44:04;24.60;40.80
52799;DHT22;38667;42.872;74.622;2023-08-12T02:46:30;24.60;40.70
52799;DHT22;38667;42.872;74.622;2023-08-12T02:48:58;24.60;40.60
52799;DHT22;38667;42.872;74.622;2023-08-12T02:51:24;24.60;40.60
52799;DHT22;38667;42.872;74.622;2023-08-12T02:53:51;24.60;40.60
52799;DHT22;38667;42.872;74.622;2023-08-12T02:56:17;24.60;41.10
52799;DHT22;38667;42.872;74.622;2023-08-12T02:58:43;24.60;41.10
52799;DHT22;38667;42.872;74.622;2023-08-12T03:01:10;24.70;41.50
52799;DHT22;38667;42.872;74.622;2023-08-12T03:03:36;24.80;41.00
52799;DHT22;38667;42.872;74.622;2023-08-12T03:06:05;24.80;41.40
52799;DHT22;38667;42.872;74.622;2023-08-12T03:08:31;24.70;41.60
52799;DHT22;38667;42.872;74.622;2023-08-12T03:11:01;24.70;41.30
52799;DHT22;38667;42.872;74.622;2023-08-12T03:13:27;24.70;41.70
52799;DHT22;38667;42.872;74.622;2023-08-12T03:15:54;24.70;41.30
52799;DHT22;38667;42.872;74.622;2023-08-12T03:18:20;24.70;41.70
52799;DHT22;38667;42.872;74.622;2023-08-12T03:20:46;24.60;41.90
52799;DHT22;38667;42.872;74.622;2023-08-12T03:23:14;24.60;42.80
52799;DHT22;38667;42.872;74.622;2023-08-12T03:25:41;24.70;43.00
52799;DHT22;38667;42.872;74.622;2023-08-12T03:28:08;24.80;41.90
52799;DHT22;38667;42.872;74.622;2023-08-12T03:30:34;25.00;42.20
52799;DHT22;38667;42.872;74.622;2023-08-12T03:33:01;25.00;41.50
52799;DHT22;38667;42.872;74.622;2023-08-12T03:35:27;25.00;41.50
52799;DHT22;38667;42.872;74.622;2023-08-12T03:37:53;25.00;42.50
52799;DHT22;38667;42.872;74.622;2023-08-12T03:40:21;24.90;42.20
52799;DHT22;38667;42.872;74.622;2023-08-12T03:42:47;25.00;42.50
52799;DHT22;38667;42.872;74.622;2023-08-12T03:45:14;25.10;42.40
52799;DHT22;38667;42.872;74.622;2023-08-12T03:47:40;25.10;42.60
52799;DHT22;38667;42.872;74.622;2023-08-12T03:50:07;25.10;42.10
52799;DHT22;38667;42.872;74.622;2023-08-12T03:52:33;25.10;42.20
52799;DHT22;38667;42.872;74.622;2023-08-12T03:55:00;25.00;43.10
52799;DHT22;38667;42.872;74.622;2023-08-12T03:57:27;25.00;44.20
52799;DHT22;38667;42.872;74.622;2023-08-12T03:59:54;25.00;42.90
52799;DHT22;38667;42.872;74.622;2023-08-12T04:02:20;25.10;43.40
52799;DHT22;38667;42.872;74.622;2023-08-12T04:04:46;25.10;43.20
52799;DHT22;38667;42.872;74.622;2023-08-12T04:07:13;25.20;42.30
52799;DHT22;38667;42.872;74.622;2023-08-12T04:09:39;25.20;42.80
52799;DHT22;38667;42.872;74.622;2023-08-12T04:12:06;25.30;42.50
52799;DHT22;38667;42.872;74.622;2023-08-12T04:14:34;25.30;42.80
52799;DHT22;38667;42.872;74.622;2023-08-12T04:17:00;25.40;42.80
52799;DHT22;38667;42.872;74.622;2023-08-12T04:19:26;25.40;43.40
52799;DHT22;38667;42.872;74.622;2023-08-12T04:21:52;25.50;42.50
52799;DHT22;38667;42.872;74.622;2023-08-12T04:24:19;25.40;42.90
52799;DHT22;38667;42.872;74.622;2023-08-12T04:26:45;25.40;43.00
52799;DHT22;38667;42.872;74.622;2023-08-12T04:29:11;25.50;43.60
52799;DHT22;38667;42.872;74.622;2023-08-12T04:31:40;25.50;43.40
52799;DHT22;38667;42.872;74.622;2023-08-12T04:34:07;25.60;42.60
52799;DHT22;38667;42.872;74.622;2023-08-12T04:36:33;25.70;41.80
52799;DHT22;38667;42.872;74.622;2023-08-12T04:38:59;25.70;42.40
52799;DHT22;38667;42.872;74.622;2023-08-12T04:41:26;25.80;43.10
52799;DHT22;38667;42.872;74.622;2023-08-12T04:43:52;25.70;42.80
52799;DHT22;38667;42.872;74.622;2023-08-12T04:46:18;25.70;43.20
52799;DHT22;38667;42.872;74.622;2023-08-12T04:48:46;25.60;44.00
52799;DHT22;38667;42.872;74.622;2023-08-12T04:51:12;25.70;44.00
52799;DHT22;38667;42.872;74.622;2023-08-12T04:53:39;25.70;43.60
52799;DHT22;38667;42.872;74.622;2023-08-12T04:56:05;25.70;43.80
52799;DHT22;38667;42.872;74.622;2023-08-12T04:58:31;25.70;44.30
52799;DHT22;38667;42.872;74.622;2023-08-12T05:00:58;25.80;44.80
52799;DHT22;38667;42.872;74.622;2023-08-12T05:03:24;25.80;43.90
52799;DHT22;38667;42.872;74.622;2023-08-12T05:05:52;25.80;45.00
52799;DHT22;38667;42.872;74.622;2023-08-12T05:08:19;25.80;45.80
52799;DHT22;38667;42.872;74.622;2023-08-12T05:10:47;25.90;44.40
52799;DHT22;38667;42.872;74.622;2023-08-12T05:13:14;26.00;45.40
52799;DHT22;38667;42.872;74.622;2023-08-12T05:15:40;26.00;44.90
52799;DHT22;38667;42.872;74.622;2023-08-12T05:18:07;25.80;44.50
52799;DHT22;38667;42.872;74.622;2023-08-12T05:20:33;25.60;44.00
52799;DHT22;38667;42.872;74.622;2023-08-12T05:23:01;25.60;44.30
52799;DHT22;38667;42.872;74.622;2023-08-12T05:25:27;25.60;44.20
52799;DHT22;38667;42.872;74.622;2023-08-12T05:27:53;25.60;44.10
52799;DHT22;38667;42.872;74.622;2023-08-12T05:30:20;25.60;44.70
52799;DHT22;38667;42.872;74.622;2023-08-12T05:32:46;25.60;44.00
52799;DHT22;38667;42.872;74.622;2023-08-12T05:35:12;25.60;44.60
52799;DHT22;38667;42.872;74.622;2023-08-12T05:37:39;25.60;43.20
52799;DHT22;38667;42.872;74.622;2023-08-12T05:40:08;25.60;44.30
52799;DHT22;38667;42.872;74.622;2023-08-12T05:42:35;25.70;44.50
52799;DHT22;38667;42.872;74.622;2023-08-12T05:45:01;26.00;43.70
52799;DHT22;38667;42.872;74.622;2023-08-12T05:47:27;26.20;42.80
52799;DHT22;38667;42.872;74.622;2023-08-12T05:49:54;26.30;42.60
52799;DHT22;38667;42.872;74.622;2023-08-12T05:52:20;26.30;42.60
52799;DHT22;38667;42.872;74.622;2023-08-12T05:54:46;26.40;41.60
52799;DHT22;38667;42.872;74.622;2023-08-12T05:57:14;26.30;42.00
52799;DHT22;38667;42.872;74.622;2023-08-12T05:59:41;26.30;42.30
52799;DHT22;38667;42.872;74.622;2023-08-12T06:02:07;26.50;40.40
52799;DHT22;38667;42.872;74.622;2023-08-12T06:04:33;26.50;40.70
52799;DHT22;38667;42.872;74.622;2023-08-12T06:06:59;26.30;41.30
52799;DHT22;38667;42.872;74.622;2023-08-12T06:09:26;26.20;42.20
52799;DHT22;38667;42.872;74.622;2023-08-12T06:11:52;26.20;42.10
52799;DHT22;38667;42.872;74.622;2023-08-12T06:14:20;26.20;42.40
52799;DHT22;38667;42.872;74.622;2023-08-12T06:16:46;26.00;42.30
52799;DHT22;38667;42.872;74.622;2023-08-12T06:19:13;25.90;42.10
52799;DHT22;38667;42.872;74.622;2023-08-12T06:21:39;25.80;41.60
52799;DHT22;38667;42.872;74.622;2023-08-12T06:24:06;25.70;40.70
52799;DHT22;38667;42.872;74.622;2023-08-12T06:26:32;25.70;41.90
52799;DHT22;38667;42.872;74.622;2023-08-12T06:28:58;25.70;42.90
52799;DHT22;38667;42.872;74.622;2023-08-12T06:31:26;25.60;42.60
52799;DHT22;38667;42.872;74.622;2023-08-12T06:33:52;25.70;42.20
52799;DHT22;38667;42.872;74.622;2023-08-12T06:36:19;25.70;41.30
52799;DHT22;38667;42.872;74.622;2023-08-12T06:38:45;25.70;41.50
52799;DHT22;38667;42.872;74.622;2023-08-12T06:41:11;25.70;41.00
52799;DHT22;38667;42.872;74.622;2023-08-12T06:43:38;25.50;40.80
52799;DHT22;38667;42.872;74.622;2023-08-12T06:46:04;25.50;42.70
52799;DHT22;38667;42.872;74.622;2023-08-12T06:48:32;25.50;42.10
52799;DHT22;38667;42.872;74.622;2023-08-12T06:50:58;25.50;41.60
52799;DHT22;38667;42.872;74.622;2023-08-12T06:53:25;25.50;41.60
52799;DHT22;38667;42.872;74.622;2023-08-12T06:55:52;25.40;41.70
52799;DHT22;38667;42.872;74.622;2023-08-12T06:58:18;25.40;42.60
52799;DHT22;38667;42.872;74.622;2023-08-12T07:00:45;25.30;42.50
52799;DHT22;38667;42.872;74.622;2023-08-12T07:03:11;25.20;43.00
52799;DHT22;38667;42.872;74.622;2023-08-12T07:05:39;25.20;42.80
52799;DHT22;38667;42.872;74.622;2023-08-12T07:08:05;25.30;41.80
52799;DHT22;38667;42.872;74.622;2023-08-12T07:10:31;25.20;42.20
52799;DHT22;38667;42.872;74.622;2023-08-12T07:12:58;25.20;42.30
52799;DHT22;38667;42.872;74.622;2023-08-12T07:15:24;25.20;43.20
52799;DHT22;38667;42.872;74.622;2023-08-12T07:17:50;25.20;42.70
52799;DHT22;38667;42.872;74.622;2023-08-12T07:20:17;25.20;42.20
52799;DHT22;38667;42.872;74.622;2023-08-12T07:22:45;25.20;43.20
52799;DHT22;38667;42.872;74.622;2023-08-12T07:25:11;25.20;43.20
52799;DHT22;38667;42.872;74.622;2023-08-12T07:27:37;25.20;43.40
52799;DHT22;38667;42.872;74.622;2023-08-12T07:30:05;25.20;44.40
52799;DHT22;38667;42.872;74.622;2023-08-12T07:32:31;25.20;43.00
52799;DHT22;38667;42.872;74.622;2023-08-12T07:34:57;25.20;43.30
52799;DHT22;38667;42.872;74.622;2023-08-12T07:37:24;25.20;42.90
52799;DHT22;38667;42.872;74.622;2023-08-12T07:39:52;25.10;43.40
52799;DHT22;38667;42.872;74.622;2023-08-12T07:42:18;25.20;43.70
52799;DHT22;38667;42.872;74.622;2023-08-12T07:44:44;25.10;43.40
52799;DHT22;38667;42.872;74.622;2023-08-12T07:47:11;25.10;42.80
52799;DHT22;38667;42.872;74.622;2023-08-12T07:49:37;25.00;43.10
52799;DHT22;38667;42.872;74.622;2023-08-12T07:52:04;24.90;43.30
52799;DHT22;38667;42.872;74.622;2023-08-12T07:54:30;24.90;44.00
52799;DHT22;38667;42.872;74.622;2023-08-12T07:56:58;24.80;44.10
52799;DHT22;38667;42.872;74.622;2023-08-12T07:59:24;24.80;43.60
52799;DHT22;38667;42.872;74.622;2023-08-12T08:01:50;24.80;44.40
52799;DHT22;38667;42.872;74.622;2023-08-12T08:04:17;24.90;44.40
52799;DHT22;38667;42.872;74.622;2023-08-12T08:06:43;24.90;44.10
52799;DHT22;38667;42.872;74.622;2023-08-12T08:09:09;24.90;44.00
52799;DHT22;38667;42.872;74.622;2023-08-12T08:11:36;24.90;44.70
52799;DHT22;38667;42.872;74.622;2023-08-12T08:14:04;24.90;43.60
52799;DHT22;38667;42.872;74.622;2023-08-12T08:16:30;24.90;44.60
52799;DHT22;38667;42.872;74.622;2023-08-12T08:18:57;24.90;43.70
52799;DHT22;38667;42.872;74.622;2023-08-12T08:21:23;24.80;43.80
52799;DHT22;38667;42.872;74.622;2023-08-12T08:23:49;24.80;44.00
52799;DHT22;38667;42.872;74.622;2023-08-12T08:26:16;24.70;44.30
52799;DHT22;38667;42.872;74.622;2023-08-12T08:28:42;24.70;44.10
52799;DHT22;38667;42.872;74.622;2023-08-12T08:31:10;24.70;44.00
52799;DHT22;38667;42.872;74.622;2023-08-12T08:33:36;24.70;44.10
52799;DHT22;38667;42.872;74.622;2023-08-12T08:36:03;24.80;44.70
52799;DHT22;38667;42.872;74.622;2023-08-12T08:38:29;24.80;43.90
52799;DHT22;38667;42.872;74.622;2023-08-12T08:40:57;24.80;44.10
52799;DHT22;38667;42.872;74.622;2023-08-12T08:43:26;24.70;44.20
52799;DHT22;38667;42.872;74.622;2023-08-12T08:45:53;24.70;43.90
52799;DHT22;38667;42.872;74.622;2023-08-12T08:48:21;24.60;43.60
52799;DHT22;38667;42.872;74.622;2023-08-12T08:50:48;24.60;44.20
52799;DHT22;38667;42.872;74.622;2023-08-12T08:53:16;24.60;44.20
52799;DHT22;38667;42.872;74.622;2023-08-12T08:55:44;24.60;44.50
52799;DHT22;38667;42.872;74.622;2023-08-12T08:58:11;24.60;44.80
52799;DHT22;38667;42.872;74.622;2023-08-12T09:00:38;24.60;44.50
52799;DHT22;38667;42.872;74.622;2023-08-12T09:03:05;24.60;44.70
52799;DHT22;38667;42.872;74.622;2023-08-12T09:05:34;24.60;44.70
52799;DHT22;38667;42.872;74.622;2023-08-12T09:08:02;24.60;44.80
52799;DHT22;38667;42.872;74.622;2023-08-12T09:10:30;24.60;45.20
52799;DHT22;38667;42.872;74.622;2023-08-12T09:12:57;24.60;44.80
52799;DHT22;38667;42.872;74.622;2023-08-12T09:15:23;24.60;45.20
52799;DHT22;38667;42.872;74.622;2023-08-12T09:17:50;24.70;45.50
52799;DHT22;38667;42.872;74.622;2023-08-12T09:20:16;24.60;45.20
52799;DHT22;38667;42.872;74.622;2023-08-12T09:22:44;24.50;45.60
52799;DHT22;38667;42.872;74.622;2023-08-12T09:25:11;24.50;45.70
52799;DHT22;38667;42.872;74.622;2023-08-12T09:27:37;24.40;45.60
52799;DHT22;38667;42.872;74.622;2023-08-12T09:30:05;24.30;46.20
52799;DHT22;38667;42.872;74.622;2023-08-12T09:32:31;24.40;45.80
52799;DHT22;38667;42.872;74.622;2023-08-12T09:34:58;24.40;46.00
52799;DHT22;38667;42.872;74.622;2023-08-12T09:37:25;24.40;46.30
52799;DHT22;38667;42.872;74.622;2023-08-12T09:39:52;24.40;46.50
52799;DHT22;38667;42.872;74.622;2023-08-12T09:42:19;24.40;46.60
52799;DHT22;38667;42.872;74.622;2023-08-12T09:44:45;24.30;46.80
52799;DHT22;38667;42.872;74.622;2023-08-12T09:47:12;24.30;47.30
52799;DHT22;38667;42.872;74.622;2023-08-12T09:49:38;24.20;49.00
52799;DHT22;38667;42.872;74.622;2023-08-12T09:52:06;23.80;52.20
52799;DHT22;38667;42.872;74.622;2023-08-12T09:54:32;23.40;53.90
52799;DHT22;38667;42.872;74.622;2023-08-12T09:57:01;23.20;58.30
52799;DHT22;38667;42.872;74.622;2023-08-12T09:59:31;22.80;59.60
52799;DHT22;38667;42.872;74.622;2023-08-12T10:01:58;22.70;59.50
52799;DHT22;38667;42.872;74.622;2023-08-12T10:04:28;22.70;59.60
52799;DHT22;38667;42.872;74.622;2023-08-12T10:06:55;22.70;61.10
52799;DHT22;38667;42.872;74.622;2023-08-12T10:09:21;22.90;59.00
52799;DHT22;38667;42.872;74.622;2023-08-12T10:11:49;23.30;58.00
52799;DHT22;38667;42.872;74.622;2023-08-12T10:14:17;23.40;56.30
52799;DHT22;38667;42.872;74.622;2023-08-12T10:16:47;23.60;56.50
52799;DHT22;38667;42.872;74.622;2023-08-12T10:19:15;23.70;56.10
52799;DHT22;38667;42.872;74.622;2023-08-12T10:21:43;23.60;53.60
52799;DHT22;38667;42.872;74.622;2023-08-12T10:24:11;23.60;53.30
52799;DHT22;38667;42.872;74.622;2023-08-12T10:26:37;23.70;53.50
52799;DHT22;38667;42.872;74.622;2023-08-12T10:29:04;23.90;52.50
52799;DHT22;38667;42.872;74.622;2023-08-12T10:31:32;24.00;52.60
52799;DHT22;38667;42.872;74.622;2023-08-12T10:33:58;23.90;53.00
52799;DHT22;38667;42.872;74.622;2023-08-12T10:36:26;24.00;53.80
52799;DHT22;38667;42.872;74.622;2023-08-12T10:38:53;24.00;53.90
52799;DHT22;38667;42.872;74.622;2023-08-12T10:41:20;24.00;51.40
52799;DHT22;38667;42.872;74.622;2023-08-12T10:43:54;23.90;50.70
52799;DHT22;38667;42.872;74.622;2023-08-12T10:46:28;23.80;51.40
52799;DHT22;38667;42.872;74.622;2023-08-12T10:49:03;23.80;53.30
52799;DHT22;38667;42.872;74.622;2023-08-12T10:51:44;23.60;54.90
52799;DHT22;38667;42.872;74.622;2023-08-12T10:54:14;23.50;55.80
52799;DHT22;38667;42.872;74.622;2023-08-12T10:57:04;23.50;55.10
52799;DHT22;38667;42.872;74.622;2023-08-12T10:59:53;23.40;55.10
52799;DHT22;38667;42.872;74.622;2023-08-12T11:02:21;23.50;54.50
52799;DHT22;38667;42.872;74.622;2023-08-12T11:04:52;23.50;53.50
52799;DHT22;38667;42.872;74.622;2023-08-12T11:07:19;23.60;52.90
52799;DHT22;38667;42.872;74.622;2023-08-12T11:09:48;23.70;53.10
52799;DHT22;38667;42.872;74.622;2023-08-12T11:12:18;23.80;52.10
52799;DHT22;38667;42.872;74.622;2023-08-12T11:14:48;23.90;51.90
52799;DHT22;38667;42.872;74.622;2023-08-12T11:17:15;23.80;51.40
52799;DHT22;38667;42.872;74.622;2023-08-12T11:19:41;23.80;51.60
52799;DHT22;38667;42.872;74.622;2023-08-12T11:22:09;23.90;50.80
52799;DHT22;38667;42.872;74.622;2023-08-12T11:24:36;23.80;50.80
52799;DHT22;38667;42.872;74.622;2023-08-12T11:27:02;23.80;50.40
52799;DHT22;38667;42.872;74.622;2023-08-12T11:29:28;23.80;50.60
52799;DHT22;38667;42.872;74.622;2023-08-12T11:31:55;23.90;50.50
52799;DHT22;38667;42.872;74.622;2023-08-12T11:34:21;24.00;49.90
52799;DHT22;38667;42.872;74.622;2023-08-12T11:36:47;24.00;49.80
52799;DHT22;38667;42.872;74.622;2023-08-12T11:39:15;24.00;49.60
52799;DHT22;38667;42.872;74.622;2023-08-12T11:41:42;24.00;49.30
52799;DHT22;38667;42.872;74.622;2023-08-12T11:44:12;24.00;49.20
52799;DHT22;38667;42.872;74.622;2023-08-12T11:46:38;24.00;49.20
52799;DHT22;38667;42.872;74.622;2023-08-12T11:49:04;24.00;49.70
52799;DHT22;38667;42.872;74.622;2023-08-12T11:51:30;24.00;49.70
52799;DHT22;38667;42.872;74.622;2023-08-12T11:53:57;24.00;49.50
52799;DHT22;38667;42.872;74.622;2023-08-12T11:56:25;24.00;49.50
52799;DHT22;38667;42.872;74.622;2023-08-12T11:58:52;24.10;50.10
52799;DHT22;38667;42.872;74.622;2023-08-12T12:01:18;24.10;49.20
52799;DHT22;38667;42.872;74.622;2023-08-12T12:03:45;24.10;48.50
52799;DHT22;38667;42.872;74.622;2023-08-12T12:06:13;24.00;48.90
52799;DHT22;38667;42.872;74.622;2023-08-12T12:08:39;23.90;49.00
52799;DHT22;38667;42.872;74.622;2023-08-12T12:11:06;23.60;49.40
52799;DHT22;38667;42.872;74.622;2023-08-12T12:13:35;23.50;50.40
52799;DHT22;38667;42.872;74.622;2023-08-12T12:16:01;23.40;51.00
52799;DHT22;38667;42.872;74.622;2023-08-12T12:18:28;23.40;51.30
52799;DHT22;38667;42.872;74.622;2023-08-12T12:20:55;23.30;51.60
52799;DHT22;38667;42.872;74.622;2023-08-12T12:23:21;23.20;52.00
52799;DHT22;38667;42.872;74.622;2023-08-12T12:25:47;23.00;52.70
52799;DHT22;38667;42.872;74.622;2023-08-12T12:28:14;22.90;52.20
52799;DHT22;38667;42.872;74.622;2023-08-12T12:30:42;22.90;51.50
52799;DHT22;38667;42.872;74.622;2023-08-12T12:33:08;22.90;52.10
52799;DHT22;38667;42.872;74.622;2023-08-12T12:35:34;22.90;52.80
52799;DHT22;38667;42.872;74.622;2023-08-12T12:38:00;22.90;52.00
52799;DHT22;38667;42.872;74.622;2023-08-12T12:40:27;23.00;51.80
52799;DHT22;38667;42.872;74.622;2023-08-12T12:42:53;23.00;52.00
52799;DHT22;38667;42.872;74.622;2023-08-12T12:45:19;23.00;52.40
52799;DHT22;38667;42.872;74.622;2023-08-12T12:47:47;23.00;52.30
52799;DHT22;38667;42.872;74.622;2023-08-12T12:50:13;22.90;52.10
52799;DHT22;38667;42.872;74.622;2023-08-12T12:52:40;23.00;51.70
52799;DHT22;38667;42.872;74.622;2023-08-12T12:55:07;23.00;52.10
52799;DHT22;38667;42.872;74.622;2023-08-12T12:57:33;22.90;52.50
52799;DHT22;38667;42.872;74.622;2023-08-12T13:00:00;22.90;52.60
52799;DHT22;38667;42.872;74.622;2023-08-12T13:02:26;22.90;52.10
52799;DHT22;38667;42.872;74.622;2023-08-12T13:04:54;22.80;52.30
52799;DHT22;38667;42.872;74.622;2023-08-12T13:07:20;22.80;52.00
52799;DHT22;38667;42.872;74.622;2023-08-12T13:09:47;22.80;52.60
52799;DHT22;38667;42.872;74.622;2023-08-12T13:12:13;22.70;53.30
52799;DHT22;38667;42.872;74.622;2023-08-12T13:14:39;22.70;53.40
52799;DHT22;38667;42.872;74.622;2023-08-12T13:17:05;22.70;52.80
52799;DHT22;38667;42.872;74.622;2023-08-12T13:19:32;22.80;53.30
52799;DHT22;38667;42.872;74.622;2023-08-12T13:22:00;22.80;53.70
52799;DHT22;38667;42.872;74.622;2023-08-12T13:24:26;22.80;52.80
52799;DHT22;38667;42.872;74.622;2023-08-12T13:26:52;22.80;53.30
52799;DHT22;38667;42.872;74.622;2023-08-12T13:29:19;22.90;54.20
52799;DHT22;38667;42.872;74.622;2023-08-12T13:31:45;22.80;55.20
52799;DHT22;38667;42.872;74.622;2023-08-12T13:34:11;22.70;56.80
52799;DHT22;38667;42.872;74.622;2023-08-12T13:36:38;22.50;58.90
52799;DHT22;38667;42.872;74.622;2023-08-12T13:39:05;22.30;59.10
52799;DHT22;38667;42.872;74.622;2023-08-12T13:41:32;22.10;60.80
52799;DHT22;38667;42.872;74.622;2023-08-12T13:43:58;22.00;65.20
52799;DHT22;38667;42.872;74.622;2023-08-12T13:46:24;21.60;67.40
52799;DHT22;38667;42.872;74.622;2023-08-12T13:48:51;21.20;66.90
52799;DHT22;38667;42.872;74.622;2023-08-12T13:51:18;20.90;66.80
52799;DHT22;38667;42.872;74.622;2023-08-12T13:53:44;20.80;66.00
52799;DHT22;38667;42.872;74.622;2023-08-12T13:56:12;20.80;65.70
52799;DHT22;38667;42.872;74.622;2023-08-12T13:58:38;20.90;65.40
52799;DHT22;38667;42.872;74.622;2023-08-12T14:01:05;20.90;66.20
52799;DHT22;38667;42.872;74.622;2023-08-12T14:03:32;20.80;66.40
52799;DHT22;38667;42.872;74.622;2023-08-12T14:05:59;20.60;69.70
52799;DHT22;38667;42.872;74.622;2023-08-12T14:08:25;20.30;70.90
52799;DHT22;38667;42.872;74.622;2023-08-12T14:10:51;20.00;71.90
52799;DHT22;38667;42.872;74.622;2023-08-12T14:13:19;19.80;74.60
52799;DHT22;38667;42.872;74.622;2023-08-12T14:15:46;19.80;76.80
52799;DHT22;38667;42.872;74.622;2023-08-12T14:18:12;19.80;79.10
52799;DHT22;38667;42.872;74.622;2023-08-12T14:20:38;19.60;79.00
52799;DHT22;38667;42.872;74.622;2023-08-12T14:23:05;19.60;75.70
52799;DHT22;38667;42.872;74.622;2023-08-12T14:25:31;19.70;77.10
52799;DHT22;38667;42.872;74.622;2023-08-12T14:27:57;19.60;75.90
52799;DHT22;38667;42.872;74.622;2023-08-12T14:30:25;19.60;73.90
52799;DHT22;38667;42.872;74.622;2023-08-12T14:32:52;19.70;74.30
52799;DHT22;38667;42.872;74.622;2023-08-12T14:35:18;19.70;75.60
52799;DHT22;38667;42.872;74.622;2023-08-12T14:37:44;19.60;75.40
52799;DHT22;38667;42.872;74.622;2023-08-12T14:40:11;19.70;75.30
52799;DHT22;38667;42.872;74.622;2023-08-12T14:42:37;19.70;75.60
52799;DHT22;38667;42.872;74.622;2023-08-12T14:45:04;19.70;73.70
52799;DHT22;38667;42.872;74.622;2023-08-12T14:47:32;19.80;72.10
52799;DHT22;38667;42.872;74.622;2023-08-12T14:49:58;19.90;71.60
52799;DHT22;38667;42.872;74.622;2023-08-12T14:52:25;20.00;72.30
52799;DHT22;38667;42.872;74.622;2023-08-12T14:54:51;20.00;73.70
52799;DHT22;38667;42.872;74.622;2023-08-12T14:57:17;19.90;73.70
52799;DHT22;38667;42.872;74.622;2023-08-12T14:59:44;19.90;74.30
52799;DHT22;38667;42.872;74.622;2023-08-12T15:02:10;19.90;73.50
52799;DHT22;38667;42.872;74.622;2023-08-12T15:04:38;19.90;74.30
52799;DHT22;38667;42.872;74.622;2023-08-12T15:07:04;19.90;74.10
52799;DHT22;38667;42.872;74.622;2023-08-12T15:09:31;19.90;74.00
52799;DHT22;38667;42.872;74.622;2023-08-12T15:11:57;19.90;74.40
52799;DHT22;38667;42.872;74.622;2023-08-12T15:14:23;19.90;74.20